createdAt,value
2023-02-02T00:01:53.126Z,86.00
2023-02-02T00:04:36.635Z,85.72
2023-02-02T00:07:05.769Z,85.57
2023-02-02T00:09:34.470Z,85.69
2023-02-02T00:12:03.070Z,85.56
2023-02-02T00:14:31.494Z,85.50
2023-02-02T00:16:59.961Z,84.92
2023-02-02T00:19:30.559Z,83.90
2023-02-02T00:21:59.428Z,83.61
2023-02-02T00:24:28.126Z,83.51
2023-02-02T00:26:59.042Z,83.66
2023-02-02T00:29:30.164Z,83.87
2023-02-02T00:31:58.723Z,83.67
2023-02-02T00:34:27.270Z,82.88
2023-02-02T00:36:55.767Z,82.79
2023-02-02T00:39:28.913Z,82.59
2023-02-02T00:41:57.339Z,82.49
2023-02-02T00:44:44.433Z,82.62
2023-02-02T00:47:12.995Z,82.66
2023-02-02T00:49:41.505Z,82.79
2023-02-02T00:52:10.174Z,82.76
2023-02-02T00:54:38.675Z,82.79
2023-02-02T00:57:07.486Z,82.88
2023-02-02T00:59:35.956Z,82.65
2023-02-02T01:02:04.503Z,82.77
2023-02-02T01:04:33.000Z,82.57
2023-02-02T01:07:01.482Z,81.97
2023-02-02T01:09:29.871Z,81.77
2023-02-02T01:11:58.623Z,81.64
2023-02-02T01:14:27.443Z,81.11
2023-02-02T01:16:57.492Z,80.97
2023-02-02T01:19:27.169Z,81.28
2023-02-02T01:21:55.638Z,81.58
2023-02-02T01:24:24.536Z,81.64
2023-02-02T01:26:53.002Z,81.52
2023-02-02T01:29:21.580Z,81.60
2023-02-02T01:31:50.527Z,81.84
2023-02-02T01:34:19.472Z,82.33
2023-02-02T01:36:48.312Z,82.43
2023-02-02T01:39:16.780Z,82.50
2023-02-02T01:41:45.233Z,82.41
2023-02-02T01:44:51.567Z,82.54
2023-02-02T01:47:23.290Z,82.58
2023-02-02T01:49:53.987Z,82.54
2023-02-02T01:52:26.322Z,82.61
2023-02-02T01:55:04.502Z,82.71
2023-02-02T01:57:44.339Z,82.64
2023-02-02T02:00:16.304Z,82.23
2023-02-02T02:02:49.163Z,82.40
2023-02-02T02:05:23.318Z,82.44
2023-02-02T02:07:54.637Z,82.58
2023-02-02T02:10:23.269Z,82.62
2023-02-02T02:12:52.237Z,82.77
2023-02-02T02:15:40.700Z,82.79
2023-02-02T02:18:33.102Z,82.78
2023-02-02T02:21:43.253Z,82.80
2023-02-02T02:25:11.370Z,83.59
2023-02-02T02:28:17.755Z,83.78
2023-02-02T02:30:52.857Z,84.15
2023-02-02T02:33:34.633Z,84.35
2023-02-02T02:36:15.455Z,84.50
2023-02-02T02:39:12.773Z,84.84
2023-02-02T02:41:49.686Z,84.99
2023-02-02T02:44:20.421Z,85.66
2023-02-02T02:46:50.738Z,86.19
2023-02-02T02:49:19.769Z,86.49
2023-02-02T02:51:52.867Z,86.77
2023-02-02T02:54:36.513Z,87.12
2023-02-02T02:57:28.497Z,86.87
2023-02-02T03:00:35.252Z,86.78
2023-02-02T03:03:29.706Z,86.27
2023-02-02T03:06:07.393Z,86.68
2023-02-02T03:09:09.025Z,86.54
2023-02-02T03:11:37.730Z,86.81
2023-02-02T03:14:09.760Z,87.61
2023-02-02T03:16:38.355Z,87.52
2023-02-02T03:19:08.571Z,87.61
2023-02-02T03:21:37.051Z,87.28
2023-02-02T03:24:05.796Z,87.28
2023-02-02T03:26:35.207Z,87.56
2023-02-02T03:29:04.352Z,87.53
2023-02-02T03:31:32.883Z,87.57
2023-02-02T03:34:01.502Z,87.83
2023-02-02T03:36:30.421Z,87.78
2023-02-02T03:38:58.878Z,88.47
2023-02-02T03:41:27.254Z,88.48
2023-02-02T03:43:55.675Z,88.68
2023-02-02T03:46:24.220Z,88.61
2023-02-02T03:48:52.698Z,89.28
2023-02-02T03:51:21.126Z,88.89
2023-02-02T03:53:49.600Z,88.57
2023-02-02T03:56:19.662Z,88.50
2023-02-02T03:58:48.141Z,88.51
2023-02-02T04:01:16.637Z,88.22
2023-02-02T04:03:46.543Z,88.56
2023-02-02T04:06:15.036Z,88.34
2023-02-02T04:08:43.444Z,88.39
2023-02-02T04:11:12.188Z,88.67
2023-02-02T04:13:41.141Z,88.63
2023-02-02T04:16:11.000Z,88.11
2023-02-02T04:18:39.890Z,87.94
2023-02-02T04:21:08.994Z,87.86
2023-02-02T04:23:38.030Z,88.02
2023-02-02T04:26:06.818Z,88.36
2023-02-02T04:28:35.540Z,88.22
2023-02-02T04:31:04.149Z,88.25
2023-02-02T04:33:34.567Z,88.11
2023-02-02T04:36:03.628Z,88.08
2023-02-02T04:38:32.207Z,88.14
2023-02-02T04:41:07.964Z,88.22
2023-02-02T04:43:37.645Z,88.23
2023-02-02T04:46:06.408Z,88.16
2023-02-02T04:48:35.112Z,88.12
2023-02-02T04:51:06.739Z,87.90
2023-02-02T04:53:36.042Z,88.11
2023-02-02T04:56:15.855Z,88.00
2023-02-02T04:58:45.807Z,87.87
2023-02-02T05:01:19.479Z,87.94
2023-02-02T05:03:49.172Z,87.88
2023-02-02T05:06:18.148Z,87.60
2023-02-02T05:08:48.987Z,87.64
2023-02-02T05:11:20.306Z,87.44
2023-02-02T05:13:51.736Z,87.58
2023-02-02T05:16:21.578Z,87.70
2023-02-02T05:18:55.425Z,87.66
2023-02-02T05:21:24.276Z,87.85
2023-02-02T05:23:52.789Z,87.82
2023-02-02T05:26:26.963Z,87.78
2023-02-02T05:28:57.125Z,87.91
2023-02-02T05:31:25.648Z,87.82
2023-02-02T05:33:54.159Z,87.94
2023-02-02T05:36:22.652Z,88.15
2023-02-02T05:38:51.172Z,88.37
2023-02-02T05:41:19.665Z,88.31
2023-02-02T05:43:48.161Z,88.18
2023-02-02T05:46:16.801Z,88.22
2023-02-02T05:48:45.273Z,88.21
2023-02-02T05:51:24.217Z,88.22
2023-02-02T05:53:52.731Z,88.78
2023-02-02T05:56:21.414Z,88.79
2023-02-02T05:58:50.100Z,88.75
2023-02-02T06:01:19.845Z,89.22
2023-02-02T06:03:48.701Z,88.99
2023-02-02T06:06:17.342Z,89.00
2023-02-02T06:08:45.746Z,89.43
2023-02-02T06:11:16.863Z,89.49
2023-02-02T06:13:46.160Z,89.64
2023-02-02T06:16:15.305Z,89.88
2023-02-02T06:18:44.080Z,89.91
2023-02-02T06:21:12.515Z,89.61
2023-02-02T06:23:46.032Z,89.29
2023-02-02T06:26:16.513Z,89.21
2023-02-02T06:28:50.245Z,89.34
2023-02-02T06:31:19.702Z,89.34
2023-02-02T06:33:54.679Z,89.43
2023-02-02T06:36:23.863Z,89.87
2023-02-02T06:38:54.946Z,90.27
2023-02-02T06:41:24.544Z,89.69
2023-02-02T06:43:53.051Z,89.58
2023-02-02T06:46:21.722Z,89.49
2023-02-02T06:48:50.277Z,89.27
2023-02-02T06:51:19.580Z,89.30
2023-02-02T06:53:49.745Z,89.30
2023-02-02T06:56:18.387Z,89.43
2023-02-02T06:58:46.856Z,88.89
2023-02-02T07:01:15.506Z,88.44
2023-02-02T07:03:44.184Z,88.24
2023-02-02T07:06:15.567Z,88.28
2023-02-02T07:08:44.525Z,87.86
2023-02-02T07:11:16.597Z,87.86
2023-02-02T07:13:47.159Z,88.04
2023-02-02T07:16:17.722Z,87.71
2023-02-02T07:18:48.569Z,87.72
2023-02-02T07:21:29.564Z,87.52
2023-02-02T07:23:58.075Z,87.52
2023-02-02T07:26:27.771Z,87.73
2023-02-02T07:28:56.348Z,87.10
2023-02-02T07:31:26.731Z,86.65
2023-02-02T07:33:55.339Z,86.91
2023-02-02T07:36:24.931Z,86.84
2023-02-02T07:39:02.525Z,86.46
2023-02-02T07:41:32.248Z,86.60
2023-02-02T07:44:00.709Z,86.54
2023-02-02T07:46:29.590Z,86.24
2023-02-02T07:48:58.294Z,86.34
2023-02-02T07:51:27.039Z,85.13
2023-02-02T07:53:58.728Z,84.15
2023-02-02T07:56:28.641Z,83.70
2023-02-02T07:58:57.717Z,83.02
2023-02-02T08:01:28.680Z,82.56
2023-02-02T08:04:03.731Z,82.15
2023-02-02T08:06:35.639Z,81.14
2023-02-02T08:09:10.489Z,80.34
2023-02-02T08:11:39.666Z,80.54
2023-02-02T08:14:08.565Z,80.78
2023-02-02T08:16:37.177Z,80.13
2023-02-02T08:19:06.067Z,79.81
2023-02-02T08:21:35.640Z,79.28
2023-02-02T08:24:05.389Z,79.52
2023-02-02T08:26:33.865Z,78.91
2023-02-02T08:29:08.592Z,79.57
2023-02-02T08:31:41.981Z,79.03
2023-02-02T08:34:12.516Z,79.10
2023-02-02T08:36:41.534Z,79.70
2023-02-02T08:39:14.537Z,80.15
2023-02-02T08:42:02.753Z,80.85
2023-02-02T08:46:00.464Z,81.43
2023-02-02T08:47:33.107Z,82.28
2023-02-02T08:50:01.597Z,83.15
2023-02-02T08:52:30.078Z,83.08
2023-02-02T08:54:58.584Z,83.14
2023-02-02T08:57:28.391Z,82.78
2023-02-02T08:59:57.079Z,82.74
2023-02-02T09:02:25.624Z,82.57
2023-02-02T09:04:54.274Z,82.90
2023-02-02T09:07:22.899Z,83.35
2023-02-02T09:09:54.212Z,83.73
2023-02-02T09:12:22.768Z,83.93
2023-02-02T09:14:51.266Z,83.98
2023-02-02T09:17:19.835Z,83.99
2023-02-02T09:19:48.416Z,83.72
2023-02-02T09:22:16.855Z,83.36
2023-02-02T09:24:45.272Z,81.65
2023-02-02T09:27:13.810Z,81.63
2023-02-02T09:29:42.236Z,81.16
2023-02-02T09:32:10.937Z,79.08
2023-02-02T09:34:40.185Z,77.90
2023-02-02T09:37:09.741Z,77.31
2023-02-02T09:39:38.154Z,77.58
2023-02-02T09:42:06.505Z,77.91
2023-02-02T09:44:38.004Z,78.54
2023-02-02T09:47:27.943Z,77.92
2023-02-02T09:49:59.416Z,77.49
2023-02-02T09:52:43.915Z,77.47
2023-02-02T09:55:23.572Z,77.61
2023-02-02T09:57:57.350Z,77.48
2023-02-02T10:00:35.436Z,77.55
2023-02-02T10:03:16.276Z,77.71
2023-02-02T10:06:13.841Z,77.77
2023-02-02T10:09:28.932Z,78.18
2023-02-02T10:11:57.429Z,79.05
2023-02-02T10:14:32.911Z,79.68
2023-02-02T10:17:19.037Z,81.08
2023-02-02T10:19:53.038Z,81.45
2023-02-02T10:22:26.037Z,81.83
2023-02-02T10:24:55.025Z,82.52
2023-02-02T10:27:37.902Z,82.75
2023-02-02T10:30:47.018Z,83.59
2023-02-02T10:33:29.189Z,84.81
2023-02-02T10:36:07.820Z,85.26
2023-02-02T10:38:53.184Z,85.09
2023-02-02T10:41:41.667Z,85.04
2023-02-02T10:44:36.564Z,84.70
2023-02-02T10:47:10.023Z,84.45
2023-02-02T10:49:40.527Z,83.64
2023-02-02T10:52:12.044Z,83.39
2023-02-02T10:55:05.572Z,83.69
2023-02-02T10:58:12.689Z,82.76
2023-02-02T11:00:58.397Z,83.19
2023-02-02T11:03:32.958Z,83.63
2023-02-02T11:06:23.066Z,83.65
2023-02-02T11:08:57.271Z,83.52
2023-02-02T11:11:34.679Z,83.02
2023-02-02T11:14:09.593Z,82.60
2023-02-02T11:16:44.640Z,82.55
2023-02-02T11:19:19.875Z,82.02
2023-02-02T11:21:53.143Z,82.14
2023-02-02T11:24:26.836Z,82.12
2023-02-02T11:27:05.755Z,81.98
2023-02-02T11:29:43.951Z,81.77
2023-02-02T11:32:35.436Z,81.01
2023-02-02T11:35:09.083Z,79.04
2023-02-02T11:38:14.656Z,78.33
2023-02-02T11:40:52.574Z,77.24
2023-02-02T11:43:28.725Z,76.33
2023-02-02T11:46:03.195Z,75.59
2023-02-02T11:48:39.495Z,75.46
2023-02-02T11:51:21.336Z,75.36
2023-02-02T11:53:58.665Z,76.06
2023-02-02T11:56:27.566Z,74.17
2023-02-02T11:58:59.479Z,74.08
2023-02-02T12:01:30.535Z,73.04
2023-02-02T12:04:22.180Z,73.49
2023-02-02T12:06:50.662Z,73.62
2023-02-02T12:09:24.765Z,71.96
2023-02-02T12:12:17.769Z,71.40
2023-02-02T12:15:20.108Z,71.47
2023-02-02T12:17:52.762Z,69.88
2023-02-02T12:20:21.440Z,70.12
2023-02-02T12:23:09.415Z,70.33
2023-02-02T12:26:00.419Z,70.28
2023-02-02T12:29:04.024Z,70.05
2023-02-02T12:31:51.509Z,69.62
2023-02-02T12:34:49.251Z,68.48
2023-02-02T12:37:30.356Z,67.00
2023-02-02T12:40:24.042Z,67.56
2023-02-02T12:43:22.215Z,68.28
2023-02-02T12:45:53.581Z,69.72
2023-02-02T12:48:38.907Z,69.45
2023-02-02T12:51:37.289Z,69.25
2023-02-02T12:54:32.663Z,69.32
2023-02-02T12:57:08.710Z,68.55
2023-02-02T12:59:58.617Z,68.34
2023-02-02T13:02:58.116Z,67.83
2023-02-02T13:05:42.095Z,67.51
2023-02-02T13:08:15.058Z,65.80
2023-02-02T13:10:46.294Z,65.71
2023-02-02T13:13:24.891Z,65.88
2023-02-02T13:16:12.852Z,65.33
2023-02-02T13:19:01.733Z,64.79
2023-02-02T13:21:31.691Z,65.18
2023-02-02T13:24:05.106Z,65.11
2023-02-02T13:26:45.215Z,64.15
2023-02-02T13:29:48.375Z,62.54
2023-02-02T13:32:36.115Z,62.54
2023-02-02T13:35:19.397Z,61.54
2023-02-02T13:38:14.905Z,61.26
2023-02-02T13:40:44.295Z,61.79
2023-02-02T13:43:19.147Z,62.06
2023-02-02T13:46:06.253Z,61.59
2023-02-02T13:49:06.893Z,62.31
2023-02-02T13:51:58.536Z,63.13
2023-02-02T13:54:47.514Z,63.14
2023-02-02T13:57:59.375Z,63.44
2023-02-02T14:00:35.084Z,64.45
2023-02-02T14:03:07.438Z,64.67
2023-02-02T14:05:40.232Z,65.59
2023-02-02T14:08:08.643Z,66.40
2023-02-02T14:10:40.305Z,66.49
2023-02-02T14:13:39.220Z,66.63
2023-02-02T14:16:19.414Z,66.60
2023-02-02T14:18:56.979Z,66.39
2023-02-02T14:21:31.516Z,66.52
2023-02-02T14:24:22.522Z,66.86
2023-02-02T14:26:59.875Z,66.75
2023-02-02T14:29:39.684Z,66.63
2023-02-02T14:32:29.760Z,66.64
2023-02-02T14:35:25.005Z,67.14
2023-02-02T14:38:14.810Z,66.76
2023-02-02T14:40:49.111Z,66.88
2023-02-02T14:43:46.492Z,67.27
2023-02-02T14:46:14.973Z,67.31
2023-02-02T14:48:48.036Z,67.20
2023-02-02T14:51:26.794Z,67.22
2023-02-02T14:54:05.367Z,67.50
2023-02-02T14:56:54.583Z,67.75
2023-02-02T14:59:37.568Z,67.58
2023-02-02T15:02:15.545Z,68.07
2023-02-02T15:04:52.184Z,68.35
2023-02-02T15:07:24.173Z,68.38
2023-02-02T15:09:56.626Z,68.51
2023-02-02T15:12:40.058Z,68.63
2023-02-02T15:15:21.237Z,68.76
2023-02-02T15:18:03.120Z,69.06
2023-02-02T15:20:37.333Z,69.36
2023-02-02T15:23:33.851Z,69.38
2023-02-02T15:26:25.069Z,69.23
2023-02-02T15:28:59.710Z,69.20
2023-02-02T15:31:34.218Z,69.17
2023-02-02T15:34:46.121Z,69.27
2023-02-02T15:37:23.493Z,69.53
2023-02-02T15:40:00.041Z,69.29
2023-02-02T15:42:58.951Z,69.28
2023-02-02T15:45:49.319Z,69.44
2023-02-02T15:48:30.232Z,69.36
2023-02-02T15:51:05.469Z,69.53
2023-02-02T15:53:43.188Z,69.61
2023-02-02T15:56:24.457Z,69.97
2023-02-02T15:58:55.683Z,70.11
2023-02-02T16:01:26.712Z,70.11
2023-02-02T16:04:17.980Z,70.05
2023-02-02T16:06:48.156Z,69.97
2023-02-02T16:09:27.000Z,69.82
2023-02-02T16:11:55.608Z,70.03
2023-02-02T16:14:24.209Z,70.19
2023-02-02T16:16:52.996Z,70.39
2023-02-02T16:19:24.029Z,70.82
2023-02-02T16:22:08.031Z,71.35
2023-02-02T16:24:44.304Z,71.56
2023-02-02T16:27:19.804Z,71.97
2023-02-02T16:29:49.666Z,71.86
2023-02-02T16:32:37.340Z,71.75
2023-02-02T16:35:24.415Z,72.07
2023-02-02T16:37:52.981Z,72.28
2023-02-02T16:40:30.154Z,72.19
2023-02-02T16:43:07.338Z,72.18
2023-02-02T16:45:45.869Z,72.64
2023-02-02T16:48:34.550Z,72.80
2023-02-02T16:51:34.019Z,72.77
2023-02-02T16:54:20.611Z,72.85
2023-02-02T16:57:00.844Z,72.87
2023-02-02T16:59:35.576Z,72.87
2023-02-02T17:02:21.206Z,72.67
2023-02-02T17:04:53.761Z,72.59
2023-02-02T17:07:22.847Z,72.73
2023-02-02T17:10:18.707Z,72.47
2023-02-02T17:12:47.380Z,72.53
2023-02-02T17:15:18.849Z,71.99
2023-02-02T17:17:49.444Z,71.96
2023-02-02T17:20:18.916Z,71.95
2023-02-02T17:22:55.025Z,71.85
2023-02-02T17:25:30.219Z,72.11
2023-02-02T17:28:00.340Z,72.10
2023-02-02T17:30:29.636Z,72.01
2023-02-02T17:32:58.180Z,71.88
2023-02-02T17:35:34.648Z,71.62
2023-02-02T17:38:08.624Z,71.80
2023-02-02T17:40:37.275Z,71.73
2023-02-02T17:43:07.223Z,71.49
2023-02-02T17:45:38.723Z,71.62
2023-02-02T17:48:09.848Z,71.99
2023-02-02T17:50:39.345Z,72.10
2023-02-02T17:53:12.340Z,72.15
2023-02-02T17:55:43.232Z,72.41
2023-02-02T17:58:15.093Z,72.41
2023-02-02T18:00:46.805Z,72.36
2023-02-02T18:03:27.288Z,72.16
2023-02-02T18:05:57.741Z,72.17
2023-02-02T18:08:26.431Z,72.15
2023-02-02T18:10:55.011Z,71.70
2023-02-02T18:13:24.047Z,71.41
2023-02-02T18:15:54.105Z,71.31
2023-02-02T18:18:23.212Z,71.22
2023-02-02T18:20:51.892Z,71.21
2023-02-02T18:23:20.682Z,71.05
2023-02-02T18:25:49.507Z,70.89
2023-02-02T18:28:18.152Z,70.86
2023-02-02T18:30:47.768Z,71.00
2023-02-02T18:33:19.880Z,71.04
2023-02-02T18:35:48.669Z,71.28
2023-02-02T18:38:18.208Z,71.39
2023-02-02T18:40:55.285Z,71.17
2023-02-02T18:43:23.748Z,71.39
2023-02-02T18:46:06.375Z,71.47
2023-02-02T18:48:36.244Z,71.54
2023-02-02T18:51:08.938Z,71.83
2023-02-02T18:53:37.417Z,72.22
2023-02-02T18:56:07.666Z,72.45
2023-02-02T18:58:37.296Z,72.42
2023-02-02T19:01:14.367Z,72.72
2023-02-02T19:03:43.470Z,72.82
2023-02-02T19:06:30.802Z,72.98
2023-02-02T19:08:59.445Z,73.05
2023-02-02T19:11:39.228Z,73.28
2023-02-02T19:14:19.771Z,73.55
2023-02-02T19:16:48.963Z,74.13
2023-02-02T19:19:33.587Z,74.36
2023-02-02T19:22:12.939Z,74.57
2023-02-02T19:24:41.437Z,74.70
2023-02-02T19:27:21.579Z,75.09
2023-02-02T19:29:52.907Z,75.45
2023-02-02T19:32:23.650Z,76.08
2023-02-02T19:34:53.206Z,77.06
2023-02-02T19:37:33.064Z,77.83
2023-02-02T19:40:07.440Z,78.18
2023-02-02T19:42:46.153Z,78.27
2023-02-02T19:45:23.938Z,78.64
2023-02-02T19:47:54.559Z,80.92
2023-02-02T19:50:26.400Z,81.32
2023-02-02T19:52:56.158Z,81.46
2023-02-02T19:55:35.090Z,82.34
2023-02-02T19:58:21.935Z,82.21
2023-02-02T20:00:52.453Z,82.61
2023-02-02T20:03:24.711Z,84.11
2023-02-02T20:05:55.595Z,84.67
2023-02-02T20:08:26.999Z,83.94
2023-02-02T20:11:00.852Z,84.04
2023-02-02T20:13:32.378Z,84.34
2023-02-02T20:16:04.407Z,85.43
2023-02-02T20:18:44.727Z,85.53
2023-02-02T20:21:43.179Z,85.43
2023-02-02T20:24:19.284Z,85.29
2023-02-02T20:26:47.883Z,85.20
2023-02-02T20:29:25.701Z,86.00
2023-02-02T20:31:57.108Z,86.06
2023-02-02T20:34:35.729Z,87.86
2023-02-02T20:37:13.100Z,87.87
2023-02-02T20:39:41.733Z,88.08
2023-02-02T20:42:10.383Z,88.67
2023-02-02T20:44:38.956Z,88.71
2023-02-02T20:47:09.013Z,89.28
2023-02-02T20:49:38.692Z,89.53
2023-02-02T20:52:11.166Z,89.86
2023-02-02T20:54:39.953Z,90.80
2023-02-02T20:57:08.623Z,90.78
2023-02-02T20:59:37.142Z,91.07
2023-02-02T21:02:06.458Z,90.84
2023-02-02T21:04:35.197Z,91.23
2023-02-02T21:07:03.755Z,91.57
2023-02-02T21:09:32.243Z,91.76
2023-02-02T21:12:00.685Z,92.40
2023-02-02T21:14:29.215Z,92.68
2023-02-02T21:17:12.907Z,92.17
2023-02-02T21:19:43.989Z,92.32
2023-02-02T21:22:13.025Z,92.57
2023-02-02T21:24:42.797Z,92.25
2023-02-02T21:27:11.381Z,92.60
2023-02-02T21:29:40.349Z,93.15
2023-02-02T21:32:09.007Z,93.01
2023-02-02T21:34:37.951Z,92.70
2023-02-02T21:37:14.147Z,92.54
2023-02-02T21:39:48.801Z,92.25
2023-02-02T21:42:22.507Z,92.14
2023-02-02T21:44:54.254Z,92.91
2023-02-02T21:47:25.576Z,93.21
2023-02-02T21:50:02.890Z,92.96
2023-02-02T21:52:34.086Z,92.65
2023-02-02T21:55:27.612Z,92.85
2023-02-02T21:57:58.505Z,93.81
2023-02-02T22:00:32.580Z,94.16
2023-02-02T22:03:01.046Z,93.92
2023-02-02T22:05:36.168Z,94.16
2023-02-02T22:08:21.023Z,94.49
2023-02-02T22:10:49.942Z,95.00
2023-02-02T22:13:21.009Z,95.11
2023-02-02T22:15:51.914Z,95.20
2023-02-02T22:18:23.739Z,94.91
2023-02-02T22:20:54.657Z,94.74
2023-02-02T22:23:28.420Z,94.96
2023-02-02T22:25:58.483Z,95.37
2023-02-02T22:28:36.875Z,95.40
2023-02-02T22:31:05.875Z,95.54
2023-02-02T22:33:34.417Z,95.62
2023-02-02T22:36:03.241Z,95.69
2023-02-02T22:38:31.703Z,95.89
2023-02-02T22:41:00.175Z,96.17
2023-02-02T22:43:28.565Z,96.69
2023-02-02T22:45:57.071Z,96.58
2023-02-02T22:48:25.557Z,96.28
2023-02-02T22:50:54.000Z,96.26
2023-02-02T22:53:22.533Z,96.06
2023-02-02T22:55:56.531Z,95.95
2023-02-02T22:58:25.712Z,96.63
2023-02-02T23:00:54.199Z,96.74
2023-02-02T23:03:22.609Z,96.66
2023-02-02T23:05:51.025Z,96.48
2023-02-02T23:08:19.430Z,96.71
2023-02-02T23:10:48.192Z,96.66
2023-02-02T23:13:16.661Z,96.45
2023-02-02T23:15:45.200Z,96.32
2023-02-02T23:18:13.652Z,96.04
2023-02-02T23:20:42.061Z,95.91
2023-02-02T23:23:10.510Z,95.64
2023-02-02T23:25:38.920Z,95.51
2023-02-02T23:28:09.795Z,95.57
2023-02-02T23:30:38.243Z,95.29
2023-02-02T23:33:06.678Z,94.89
2023-02-02T23:35:35.055Z,94.39
2023-02-02T23:38:03.495Z,94.20
2023-02-02T23:40:31.919Z,94.08
2023-02-02T23:43:00.281Z,93.79
2023-02-02T23:45:28.679Z,92.55
2023-02-02T23:47:57.074Z,92.68
2023-02-02T23:50:25.815Z,92.74
2023-02-02T23:52:54.556Z,92.54
2023-02-02T23:55:22.926Z,92.63
2023-02-02T23:57:51.394Z,92.55
